Time;durP1;ratioP1;P1;durP2;ratioP2;P2;SDS_P1;SDS_P2;PMS_P1;PMS_P2;Temp;Humidity;BMP_temperature;BMP_pressure;BME280_temperature;BME280_humidity;BME280_pressure;Samples;Min_cycle;Max_cycle;Signal;HPM_P1;HPM_P2
2022/10/29 00:01:53;;;;;;;32.60;10.45;;;14.20;99.90;;;;;;5022722;28;20043;-93
2022/10/29 00:04:19;;;;;;;24.88;9.95;;;14.10;99.90;;;;;;5016207;28;20026;-94
2022/10/29 00:06:47;;;;;;;17.13;8.38;;;14.10;99.90;;;;;;5017557;28;20022;-93
2022/10/29 00:09:12;;;;;;;21.08;8.40;;;14.10;99.90;;;;;;5017419;28;20026;-94
2022/10/29 00:11:38;;;;;;;20.10;9.35;;;14.10;99.90;;;;;;5016971;28;20028;-92
2022/10/29 00:14:04;;;;;;;23.27;8.95;;;14.00;99.90;;;;;;5016291;28;20093;-93
2022/10/29 00:16:36;;;;;;;27.20;11.02;;;14.00;99.90;;;;;;5017300;28;20437;-93
2022/10/29 00:19:03;;;;;;;25.63;11.18;;;14.10;99.90;;;;;;5016796;28;20029;-93
2022/10/29 00:21:29;;;;;;;28.83;11.45;;;14.10;99.90;;;;;;5016951;28;20025;-93
2022/10/29 00:23:56;;;;;;;22.27;9.90;;;14.00;99.90;;;;;;5015583;28;20059;-94
2022/10/29 00:26:22;;;;;;;19.20;9.27;;;14.00;99.90;;;;;;5016889;28;20032;-93
2022/10/29 00:28:51;;;;;;;24.92;8.63;;;14.00;99.90;;;;;;5016882;28;20166;-92
2022/10/29 00:31:18;;;;;;;19.15;8.63;;;13.90;99.90;;;;;;5014366;28;20044;-94
2022/10/29 00:33:44;;;;;;;24.25;8.80;;;13.80;99.90;;;;;;4997775;28;20026;-93
2022/10/29 00:36:16;;;;;;;19.70;9.30;;;13.70;99.90;;;;;;4997512;28;20120;-93
2022/10/29 00:38:41;;;;;;;22.48;9.90;;;13.70;99.90;;;;;;5007820;28;20084;-93
2022/10/29 00:41:09;;;;;;;22.77;11.57;;;13.60;99.90;;;;;;5016014;28;20353;-94
2022/10/29 00:43:37;;;;;;;22.05;10.10;;;13.60;99.90;;;;;;5016972;28;20037;-93
2022/10/29 00:46:16;;;;;;;25.00;10.55;;;13.60;99.90;;;;;;5017008;28;20021;-94
2022/10/29 00:48:47;;;;;;;26.75;11.75;;;13.60;99.90;;;;;;5007781;28;20030;-93
2022/10/29 00:51:14;;;;;;;24.13;11.63;;;13.50;99.90;;;;;;5004817;28;20144;-94
2022/10/29 00:53:45;;;;;;;29.42;13.60;;;13.50;99.90;;;;;;5006351;28;20033;-93
2022/10/29 00:56:11;;;;;;;28.00;12.32;;;13.50;99.90;;;;;;4997802;28;20247;-93
2022/10/29 00:58:37;;;;;;;28.60;12.65;;;13.50;99.90;;;;;;5010869;28;20438;-94
2022/10/29 01:01:03;;;;;;;34.70;11.73;;;13.50;99.90;;;;;;5017208;28;20053;-93
2022/10/29 01:03:28;;;;;;;31.20;13.23;;;13.50;99.90;;;;;;5017304;28;20044;-93
2022/10/29 01:05:54;;;;;;;29.60;11.43;;;13.40;99.90;;;;;;5024687;28;20385;-93
2022/10/29 01:08:20;;;;;;;25.92;12.45;;;13.40;99.90;;;;;;5017665;28;20033;-93
2022/10/29 01:11:25;;;;;;;27.60;12.50;;;13.40;99.90;;;;;;5014251;28;20033;-93
2022/10/29 01:14:12;;;;;;;18.80;8.93;;;13.40;99.90;;;;;;4984251;28;20671;-93
2022/10/29 01:17:10;;;;;;;16.10;9.13;;;13.30;99.90;;;;;;5033638;28;20045;-94
2022/10/29 01:19:59;;;;;;;17.33;9.60;;;13.30;99.90;;;;;;4977647;28;20026;-93
2022/10/29 01:22:36;;;;;;;65.75;7.07;;;13.30;99.90;;;;;;5021347;28;20083;-93
2022/10/29 01:25:24;;;;;;;56.63;6.72;;;13.20;99.90;;;;;;5027270;28;20026;-93
2022/10/29 01:27:52;;;;;;;93.53;6.88;;;13.10;99.90;;;;;;5017043;28;20025;-93
2022/10/29 01:30:57;;;;;;;77.47;7.90;;;13.00;99.90;;;;;;5020028;28;20053;-93
2022/10/29 01:34:03;;;;;;;19.25;7.32;;;13.00;99.90;;;;;;4981646;28;20132;-93
2022/10/29 01:36:37;;;;;;;18.50;8.65;;;13.00;99.90;;;;;;5020706;28;20045;-94
2022/10/29 01:39:40;;;;;;;20.67;9.50;;;13.00;99.90;;;;;;5022089;28;20026;-94
2022/10/29 01:42:13;;;;;;;24.92;11.45;;;13.00;99.90;;;;;;5025047;28;20504;-93
2022/10/29 01:44:49;;;;;;;24.00;11.43;;;13.00;99.90;;;;;;5019440;28;20022;-93
2022/10/29 01:47:18;;;;;;;25.70;11.50;;;13.00;99.90;;;;;;5017976;28;20075;-93
2022/10/29 01:49:52;;;;;;;22.70;11.13;;;13.00;99.90;;;;;;5016521;28;20029;-93
2022/10/29 01:52:20;;;;;;;29.23;15.15;;;13.00;99.90;;;;;;5022555;28;20021;-94
2022/10/29 01:54:46;;;;;;;26.80;14.18;;;13.10;99.90;;;;;;5018051;28;20021;-93
2022/10/29 01:57:41;;;;;;;31.20;15.38;;;13.10;99.90;;;;;;5017239;28;20120;-93
2022/10/29 02:00:16;;;;;;;29.58;14.48;;;13.10;99.90;;;;;;5004177;28;20107;-94
2022/10/29 02:03:02;;;;;;;33.47;16.10;;;13.10;99.90;;;;;;5003645;28;20033;-93
2022/10/29 02:05:49;;;;;;;28.98;15.48;;;13.10;99.90;;;;;;5017142;28;20029;-93
2022/10/29 02:08:30;;;;;;;33.50;16.70;;;13.00;99.90;;;;;;5014955;28;20473;-94
2022/10/29 02:11:18;;;;;;;31.88;15.82;;;13.00;99.90;;;;;;4996789;28;20116;-94
2022/10/29 02:13:50;;;;;;;33.78;14.88;;;13.00;99.90;;;;;;5012342;28;20030;-94
2022/10/29 02:16:16;;;;;;;29.20;14.32;;;13.00;99.90;;;;;;5015454;28;20025;-94
2022/10/29 02:18:45;;;;;;;33.25;15.32;;;13.00;99.90;;;;;;5015814;28;20076;-93
2022/10/29 02:21:14;;;;;;;40.65;19.05;;;13.00;99.90;;;;;;5015109;28;20333;-93
2022/10/29 02:23:40;;;;;;;40.03;18.83;;;13.00;99.90;;;;;;5015061;28;20038;-93
2022/10/29 02:26:05;;;;;;;31.88;17.60;;;13.00;99.90;;;;;;5001324;28;20025;-93
2022/10/29 02:28:31;;;;;;;39.03;18.73;;;13.00;99.90;;;;;;4998966;28;20037;-93
2022/10/29 02:30:56;;;;;;;54.00;17.17;;;13.00;99.90;;;;;;5004290;28;20043;-94
2022/10/29 02:33:22;;;;;;;47.95;17.15;;;13.00;99.90;;;;;;5026830;28;20056;-94
2022/10/29 02:35:48;;;;;;;40.25;17.83;;;13.00;99.90;;;;;;5035795;28;20025;-93
2022/10/29 02:38:13;;;;;;;34.65;17.52;;;13.00;99.90;;;;;;5010383;28;20022;-94
2022/10/29 02:40:39;;;;;;;37.83;16.77;;;13.00;99.90;;;;;;5015741;28;20093;-92
2022/10/29 02:43:04;;;;;;;30.55;16.58;;;13.00;99.90;;;;;;4999220;28;20496;-93
2022/10/29 02:45:30;;;;;;;30.48;15.55;;;13.00;99.90;;;;;;4999793;28;20410;-93
2022/10/29 02:47:55;;;;;;;36.92;16.48;;;13.00;99.90;;;;;;5005303;28;20033;-94
2022/10/29 02:50:21;;;;;;;38.22;17.15;;;13.00;99.90;;;;;;5017107;28;20029;-94
2022/10/29 02:52:46;;;;;;;32.20;17.85;;;13.00;99.90;;;;;;4998923;28;20068;-93
2022/10/29 02:55:12;;;;;;;33.33;17.20;;;12.90;99.90;;;;;;5005666;28;20042;-94
2022/10/29 02:57:38;;;;;;;35.35;19.13;;;12.90;99.90;;;;;;5013974;28;20132;-94
2022/10/29 03:00:04;;;;;;;32.92;16.88;;;12.90;99.90;;;;;;5018288;28;20036;-93
2022/10/29 03:02:30;;;;;;;38.38;18.80;;;12.90;99.90;;;;;;5018362;28;20109;-94
2022/10/29 03:04:55;;;;;;;49.15;19.23;;;12.90;99.90;;;;;;5018110;28;20029;-93
2022/10/29 03:07:21;;;;;;;45.58;20.67;;;12.90;99.90;;;;;;5017995;28;20049;-93
2022/10/29 03:09:46;;;;;;;35.80;18.85;;;12.90;99.90;;;;;;5018446;28;20029;-94
2022/10/29 03:12:12;;;;;;;36.83;21.02;;;12.90;99.90;;;;;;5018264;28;20026;-93
2022/10/29 03:14:38;;;;;;;50.22;20.90;;;12.90;99.90;;;;;;5016799;28;20481;-93
2022/10/29 03:17:03;;;;;;;38.42;21.83;;;12.90;99.90;;;;;;5017865;28;20112;-93
2022/10/29 03:19:29;;;;;;;41.67;19.98;;;13.00;99.90;;;;;;5009689;28;20033;-94
2022/10/29 03:21:54;;;;;;;37.70;18.90;;;13.00;99.90;;;;;;5017649;28;20080;-93
2022/10/29 03:24:20;;;;;;;33.15;18.95;;;12.90;99.90;;;;;;5017995;28;20049;-93
2022/10/29 03:26:45;;;;;;;45.22;20.23;;;12.90;99.90;;;;;;5018137;28;20033;-92
2022/10/29 03:29:11;;;;;;;45.40;21.92;;;12.90;99.90;;;;;;5016822;28;20052;-93
2022/10/29 03:31:36;;;;;;;43.25;23.10;;;12.90;99.90;;;;;;5017016;28;20033;-93
2022/10/29 03:34:02;;;;;;;48.90;22.67;;;12.90;99.90;;;;;;5014274;28;20025;-93
2022/10/29 03:36:27;;;;;;;47.97;22.38;;;13.00;99.90;;;;;;5003144;28;20066;-93
2022/10/29 03:38:53;;;;;;;54.85;22.60;;;13.00;99.90;;;;;;5033991;28;20481;-93
2022/10/29 03:41:18;;;;;;;44.25;21.65;;;13.10;99.90;;;;;;5017573;28;20032;-93
2022/10/29 03:43:44;;;;;;;50.60;23.98;;;13.00;99.90;;;;;;5013880;28;20049;-93
2022/10/29 03:46:09;;;;;;;41.78;22.95;;;13.00;99.90;;;;;;5013143;28;20025;-92
2022/10/29 03:48:35;;;;;;;52.03;24.95;;;13.00;99.90;;;;;;5016918;28;20040;-93
2022/10/29 03:51:06;;;;;;;49.42;24.08;;;13.10;99.90;;;;;;5017175;28;20121;-93
2022/10/29 03:53:33;;;;;;;46.67;24.17;;;13.10;99.90;;;;;;5016858;28;20025;-93
2022/10/29 03:55:59;;;;;;;47.10;23.85;;;13.10;99.90;;;;;;5017159;28;20401;-93
2022/10/29 03:58:25;;;;;;;56.20;25.48;;;13.20;99.90;;;;;;5016357;28;20025;-94
2022/10/29 04:01:02;;;;;;;48.15;25.45;;;13.10;99.90;;;;;;5034161;28;20069;-93
2022/10/29 04:03:30;;;;;;;56.25;25.60;;;13.20;99.90;;;;;;5003207;28;20538;-93
2022/10/29 04:05:56;;;;;;;48.17;24.45;;;13.20;99.90;;;;;;5017156;28;20032;-93
2022/10/29 04:08:22;;;;;;;49.70;25.75;;;13.20;99.90;;;;;;5016517;28;20037;-93
2022/10/29 04:10:49;;;;;;;50.58;24.85;;;13.20;99.90;;;;;;5017126;28;20017;-94
2022/10/29 04:13:15;;;;;;;53.85;24.45;;;13.20;99.90;;;;;;5016603;28;20033;-94
2022/10/29 04:15:41;;;;;;;55.55;24.27;;;13.20;99.90;;;;;;5009371;28;20034;-93
2022/10/29 04:18:07;;;;;;;51.72;26.45;;;13.20;99.90;;;;;;4999038;28;20025;-93
2022/10/29 04:20:33;;;;;;;48.63;25.77;;;13.30;99.90;;;;;;5017005;28;20018;-93
2022/10/29 04:22:59;;;;;;;45.38;24.23;;;13.30;99.90;;;;;;5016515;28;20136;-94
2022/10/29 04:25:24;;;;;;;56.03;24.50;;;13.30;99.90;;;;;;5016603;28;20049;-93
2022/10/29 04:27:52;;;;;;;44.60;24.02;;;13.30;99.90;;;;;;5016574;28;20033;-93
2022/10/29 04:30:17;;;;;;;49.25;24.75;;;13.30;99.90;;;;;;5025366;28;20047;-93
2022/10/29 04:32:43;;;;;;;51.10;24.17;;;13.30;99.90;;;;;;4993701;28;20089;-93
2022/10/29 04:35:08;;;;;;;47.15;24.27;;;13.30;99.90;;;;;;4993437;28;20485;-93
2022/10/29 04:37:34;;;;;;;52.78;25.30;;;13.30;99.90;;;;;;4995589;28;20384;-93
2022/10/29 04:40:00;;;;;;;56.13;25.27;;;13.30;99.90;;;;;;5012619;28;20096;-92
2022/10/29 04:42:25;;;;;;;53.20;26.13;;;13.30;99.90;;;;;;5013453;28;20030;-93
2022/10/29 04:44:51;;;;;;;59.13;25.63;;;13.30;99.90;;;;;;5012567;28;20056;-94
2022/10/29 04:47:16;;;;;;;44.72;23.92;;;13.20;99.90;;;;;;5007025;28;20534;-94
2022/10/29 04:49:42;;;;;;;53.75;23.25;;;13.20;99.90;;;;;;5007600;28;20474;-93
2022/10/29 04:52:07;;;;;;;44.42;22.50;;;13.10;99.90;;;;;;5010309;28;20037;-93
2022/10/29 04:54:33;;;;;;;45.20;24.20;;;13.10;99.90;;;;;;4994519;28;20026;-93
2022/10/29 04:56:58;;;;;;;43.83;24.33;;;13.10;99.90;;;;;;5012951;28;20050;-93
2022/10/29 04:59:24;;;;;;;46.47;23.75;;;13.10;99.90;;;;;;5011244;28;20037;-93
2022/10/29 05:01:49;;;;;;;46.72;22.42;;;13.10;99.90;;;;;;5012261;28;20030;-93
2022/10/29 05:04:15;;;;;;;47.63;20.10;;;13.10;99.90;;;;;;5013052;28;20036;-93
2022/10/29 05:06:40;;;;;;;43.33;21.30;;;13.10;99.90;;;;;;5012923;28;20080;-93
2022/10/29 05:09:06;;;;;;;38.40;22.35;;;13.10;99.90;;;;;;5016605;28;20041;-93
2022/10/29 05:11:32;;;;;;;37.42;21.55;;;13.10;99.90;;;;;;5028962;28;20025;-94
2022/10/29 05:13:57;;;;;;;42.17;21.92;;;13.00;99.90;;;;;;5012426;28;20032;-94
2022/10/29 05:16:23;;;;;;;66.00;26.33;;;13.00;99.90;;;;;;5013347;28;20021;-93
2022/10/29 05:18:48;;;;;;;69.85;21.45;;;13.00;99.90;;;;;;5011313;28;20022;-93
2022/10/29 05:21:14;;;;;;;391.38;25.50;;;12.90;99.90;;;;;;5012555;28;20026;-94
2022/10/29 05:23:40;;;;;;;66.60;17.58;;;12.90;99.90;;;;;;4996728;28;20038;-94
2022/10/29 05:26:05;;;;;;;34.20;19.10;;;12.90;99.90;;;;;;4992869;28;20080;-94
2022/10/29 05:28:31;;;;;;;52.22;17.15;;;12.80;99.90;;;;;;4996140;28;20034;-93
2022/10/29 05:31:00;;;;;;;35.10;18.63;;;12.80;99.90;;;;;;5011167;28;20046;-93
2022/10/29 05:33:25;;;;;;;43.42;18.75;;;12.80;99.90;;;;;;5012512;28;20425;-93
2022/10/29 05:35:51;;;;;;;37.67;18.83;;;12.80;99.90;;;;;;5008959;28;20019;-93
2022/10/29 05:38:17;;;;;;;39.83;20.13;;;12.70;99.90;;;;;;5012248;28;20030;-93
2022/10/29 05:40:43;;;;;;;31.20;19.30;;;12.80;99.90;;;;;;5012282;28;20082;-92
2022/10/29 05:43:10;;;;;;;33.80;18.92;;;12.70;99.90;;;;;;5011651;28;20128;-93
2022/10/29 05:45:35;;;;;;;34.75;19.20;;;12.80;99.90;;;;;;4998469;28;20019;-93
2022/10/29 05:48:02;;;;;;;30.83;17.17;;;12.80;99.90;;;;;;5011732;28;20084;-93
2022/10/29 05:50:29;;;;;;;33.78;18.25;;;12.80;99.90;;;;;;5011880;28;20378;-93
2022/10/29 05:52:59;;;;;;;35.78;19.77;;;12.80;99.90;;;;;;5011658;28;20030;-93
2022/10/29 05:55:25;;;;;;;46.22;22.17;;;12.80;99.90;;;;;;5013936;28;20485;-92
2022/10/29 05:57:58;;;;;;;41.55;21.17;;;12.80;99.90;;;;;;5012110;28;20030;-93
2022/10/29 06:00:26;;;;;;;58.47;22.10;;;12.90;99.90;;;;;;5011760;28;20030;-92
2022/10/29 06:02:51;;;;;;;43.83;22.08;;;12.90;99.90;;;;;;5014824;28;20089;-92
2022/10/29 06:05:17;;;;;;;47.60;23.08;;;12.90;99.90;;;;;;5016258;28;20056;-93
2022/10/29 06:07:43;;;;;;;41.53;21.73;;;12.90;99.90;;;;;;5016164;28;20022;-92
2022/10/29 06:10:08;;;;;;;42.50;21.60;;;13.00;99.90;;;;;;5015452;28;20117;-92
2022/10/29 06:12:34;;;;;;;42.90;22.20;;;13.00;99.90;;;;;;5000180;28;20026;-93
2022/10/29 06:15:00;;;;;;;44.65;21.02;;;13.10;99.90;;;;;;4996483;28;20030;-92
2022/10/29 06:17:25;;;;;;;39.17;21.92;;;13.00;99.90;;;;;;4996712;28;20022;-92
2022/10/29 06:19:51;;;;;;;46.95;24.27;;;13.10;99.90;;;;;;5006163;28;20034;-92
2022/10/29 06:22:17;;;;;;;47.67;23.02;;;13.20;99.90;;;;;;5016001;28;20038;-93
2022/10/29 06:24:42;;;;;;;50.75;25.05;;;13.20;99.90;;;;;;5014696;28;20064;-92
2022/10/29 06:27:08;;;;;;;49.63;24.50;;;13.30;99.90;;;;;;4996096;28;20094;-92
2022/10/29 06:29:33;;;;;;;82.10;43.83;;;13.30;99.90;;;;;;5027264;28;20056;-93
2022/10/29 06:31:59;;;;;;;52.47;30.48;;;13.40;99.90;;;;;;5025693;28;20032;-94
2022/10/29 06:34:24;;;;;;;49.70;25.65;;;13.40;99.90;;;;;;5019062;28;20099;-93
2022/10/29 06:36:50;;;;;;;53.55;27.50;;;13.40;99.90;;;;;;5004760;28;20069;-93
2022/10/29 06:39:15;;;;;;;52.88;27.63;;;13.50;99.90;;;;;;5004550;28;20021;-93
2022/10/29 06:41:41;;;;;;;58.63;25.85;;;13.60;99.90;;;;;;5015035;28;20029;-93
2022/10/29 06:44:07;;;;;;;53.47;25.15;;;13.70;99.90;;;;;;5011490;28;20793;-93
2022/10/29 06:46:35;;;;;;;52.95;26.13;;;13.70;99.90;;;;;;5018666;28;20044;-94
2022/10/29 06:49:01;;;;;;;48.35;25.23;;;13.70;99.90;;;;;;5017712;28;20029;-93
2022/10/29 06:51:27;;;;;;;49.42;25.65;;;13.80;99.90;;;;;;5018635;28;20030;-93
2022/10/29 06:53:53;;;;;;;53.25;24.23;;;13.80;99.90;;;;;;5011141;28;20025;-94
2022/10/29 06:56:19;;;;;;;49.00;24.23;;;13.90;99.90;;;;;;5006207;28;20030;-93
2022/10/29 06:58:45;;;;;;;38.70;22.45;;;13.90;99.90;;;;;;4998679;28;20018;-93
2022/10/29 07:01:10;;;;;;;52.20;23.60;;;13.90;99.90;;;;;;5006883;28;20029;-93
2022/10/29 07:03:36;;;;;;;47.55;23.60;;;13.90;99.90;;;;;;5018277;28;20065;-93
2022/10/29 07:06:01;;;;;;;47.45;24.77;;;13.90;99.90;;;;;;5015195;28;20028;-94
2022/10/29 07:08:27;;;;;;;48.60;23.80;;;14.00;99.90;;;;;;5018681;28;20466;-92
2022/10/29 07:10:53;;;;;;;48.28;24.17;;;14.00;99.90;;;;;;5003020;28;20041;-93
2022/10/29 07:13:19;;;;;;;49.92;25.38;;;14.10;99.90;;;;;;5017569;28;20026;-93
2022/10/29 07:15:45;;;;;;;41.72;23.17;;;14.20;99.90;;;;;;5017850;28;20044;-94
2022/10/29 07:18:11;;;;;;;44.25;23.10;;;14.20;99.90;;;;;;4998915;28;20030;-93
2022/10/29 07:20:40;;;;;;;51.65;24.38;;;14.30;99.90;;;;;;4998611;28;20057;-92
2022/10/29 07:23:05;;;;;;;42.17;23.80;;;14.40;99.90;;;;;;5003464;28;20037;-93
2022/10/29 07:25:32;;;;;;;37.92;22.33;;;14.50;99.90;;;;;;5017526;28;20030;-93
2022/10/29 07:28:07;;;;;;;45.85;23.77;;;14.50;99.90;;;;;;5017193;28;20046;-93
2022/10/29 07:30:33;;;;;;;42.28;21.48;;;14.60;99.90;;;;;;5014013;28;20050;-93
2022/10/29 07:32:58;;;;;;;37.30;21.02;;;14.60;99.90;;;;;;5015061;28;20034;-94
2022/10/29 07:35:24;;;;;;;42.38;21.67;;;14.60;99.90;;;;;;5010324;28;20050;-93
2022/10/29 07:37:49;;;;;;;40.10;21.40;;;14.60;99.90;;;;;;5004102;28;20056;-93
2022/10/29 07:40:15;;;;;;;41.47;21.27;;;14.70;99.90;;;;;;5014319;28;20022;-93
2022/10/29 07:42:41;;;;;;;39.22;20.88;;;14.70;99.90;;;;;;5013142;28;20525;-93
2022/10/29 07:45:07;;;;;;;38.10;21.80;;;14.80;99.90;;;;;;5013418;28;20519;-93
2022/10/29 07:47:32;;;;;;;34.97;21.45;;;14.90;99.90;;;;;;4996281;28;20031;-93
2022/10/29 07:49:58;;;;;;;36.95;21.45;;;15.00;99.90;;;;;;5012766;28;20030;-93
2022/10/29 07:52:23;;;;;;;47.65;20.70;;;15.00;99.90;;;;;;4999697;28;20027;-93
2022/10/29 07:54:49;;;;;;;29.98;18.83;;;15.10;99.90;;;;;;5007148;28;20025;-93
2022/10/29 07:57:15;;;;;;;44.65;20.15;;;15.10;99.90;;;;;;5014049;28;20032;-94
2022/10/29 07:59:40;;;;;;;38.97;20.33;;;15.20;99.90;;;;;;5013937;28;20030;-94
2022/10/29 08:02:09;;;;;;;31.63;18.58;;;15.20;99.90;;;;;;5013654;28;20030;-93
2022/10/29 08:04:35;;;;;;;37.58;20.15;;;15.20;99.90;;;;;;5000543;28;20026;-92
2022/10/29 08:07:00;;;;;;;39.40;20.48;;;15.30;99.90;;;;;;5005441;28;20044;-93
2022/10/29 08:09:26;;;;;;;31.17;19.55;;;15.30;99.90;;;;;;5013878;28;20374;-93
2022/10/29 08:11:52;;;;;;;35.63;19.38;;;15.30;99.90;;;;;;5013498;28;20478;-93
2022/10/29 08:14:17;;;;;;;38.88;18.92;;;15.40;99.90;;;;;;5013433;28;20084;-92
2022/10/29 08:16:43;;;;;;;33.15;18.23;;;15.50;99.90;;;;;;5014062;28;20049;-92
2022/10/29 08:19:08;;;;;;;30.17;18.58;;;15.60;99.90;;;;;;5007416;28;20085;-93
2022/10/29 08:21:35;;;;;;;36.92;19.58;;;15.60;99.90;;;;;;4999816;28;20117;-93
2022/10/29 08:24:01;;;;;;;36.15;19.27;;;15.70;99.90;;;;;;5014240;28;20037;-93
2022/10/29 08:26:26;;;;;;;30.17;17.65;;;15.80;99.90;;;;;;5014023;28;20044;-92
2022/10/29 08:28:52;;;;;;;33.10;17.88;;;15.90;99.90;;;;;;5013860;28;20493;-93
2022/10/29 08:31:18;;;;;;;33.92;18.73;;;16.10;99.90;;;;;;5012711;28;20026;-92
2022/10/29 08:33:46;;;;;;;36.10;16.73;;;16.20;99.90;;;;;;4998576;28;20014;-93
2022/10/29 08:36:11;;;;;;;30.42;16.70;;;16.30;99.90;;;;;;5020267;28;20045;-94
2022/10/29 08:38:37;;;;;;;28.92;16.55;;;16.40;99.90;;;;;;5016706;28;20021;-93
2022/10/29 08:41:21;;;;;;;33.83;16.33;;;16.50;99.90;;;;;;5014987;28;20025;-93
2022/10/29 08:44:25;;;;;;;29.90;16.20;;;16.70;99.90;;;;;;4998072;28;20034;-93
2022/10/29 08:47:13;;;;;;;28.10;14.70;;;16.80;99.90;;;;;;5008525;28;20033;-93
2022/10/29 08:49:43;;;;;;;28.35;14.93;;;16.80;99.90;;;;;;5016749;28;20026;-93
2022/10/29 08:52:23;;;;;;;31.45;15.07;;;16.80;99.90;;;;;;5016340;28;20067;-94
2022/10/29 08:55:13;;;;;;;32.63;13.55;;;16.80;99.90;;;;;;5032649;28;20037;-94
2022/10/29 08:57:43;;;;;;;26.35;13.18;;;16.90;99.90;;;;;;4986509;28;20103;-93
2022/10/29 09:00:18;;;;;;;22.38;13.73;;;16.90;99.90;;;;;;4996136;28;20441;-92
2022/10/29 09:02:44;;;;;;;22.70;12.85;;;17.00;99.90;;;;;;4997381;28;20038;-92
2022/10/29 09:05:19;;;;;;;21.80;12.93;;;17.00;99.90;;;;;;5015542;28;20032;-93
2022/10/29 09:08:03;;;;;;;20.52;13.48;;;17.10;99.90;;;;;;5015462;28;20119;-92
2022/10/29 09:10:40;;;;;;;23.35;14.48;;;17.10;99.90;;;;;;5029073;28;20377;-93
2022/10/29 09:13:31;;;;;;;26.88;13.60;;;17.20;99.90;;;;;;5006476;28;20030;-93
2022/10/29 09:16:20;;;;;;;22.90;13.53;;;17.30;99.90;;;;;;5007438;28;20037;-93
2022/10/29 09:19:07;;;;;;;26.63;14.63;;;17.30;99.90;;;;;;5013744;28;20028;-93
2022/10/29 09:21:45;;;;;;;19.17;12.40;;;17.30;99.90;;;;;;4996923;28;20026;-92
2022/10/29 09:24:48;;;;;;;20.67;13.60;;;17.30;99.90;;;;;;5012682;28;20064;-92
2022/10/29 09:27:30;;;;;;;19.17;12.10;;;17.40;99.90;;;;;;5015032;28;20022;-94
2022/10/29 09:30:21;;;;;;;25.20;13.93;;;17.30;99.90;;;;;;5015869;28;20045;-93
2022/10/29 09:32:59;;;;;;;23.08;12.60;;;17.40;99.90;;;;;;5015996;28;20381;-93
2022/10/29 09:35:45;;;;;;;20.98;13.05;;;17.40;99.90;;;;;;5015436;28;20036;-94
2022/10/29 09:38:19;;;;;;;22.80;12.85;;;17.50;99.90;;;;;;5004721;28;20079;-93
2022/10/29 09:40:45;;;;;;;26.95;13.68;;;17.50;99.90;;;;;;5028480;28;20021;-93
2022/10/29 09:43:38;;;;;;;24.17;13.00;;;17.50;99.90;;;;;;5009335;28;20037;-94
2022/10/29 09:46:29;;;;;;;24.45;14.45;;;17.60;99.90;;;;;;5042162;28;20033;-93
2022/10/29 09:49:06;;;;;;;21.55;12.65;;;17.70;99.90;;;;;;5031871;28;20055;-93
2022/10/29 09:52:00;;;;;;;22.98;12.13;;;17.70;99.90;;;;;;5015545;28;20021;-93
2022/10/29 09:54:29;;;;;;;17.67;12.27;;;17.80;99.90;;;;;;4998540;28;20197;-90
2022/10/29 09:56:56;;;;;;;19.60;11.95;;;17.70;99.90;;;;;;5015267;28;20028;-93
2022/10/29 09:59:44;;;;;;;19.77;13.40;;;17.70;99.90;;;;;;5015658;28;20033;-94
2022/10/29 10:02:42;;;;;;;20.80;11.75;;;17.80;99.90;;;;;;5028891;28;20044;-93
2022/10/29 10:05:11;;;;;;;24.92;13.27;;;17.80;99.90;;;;;;5013780;28;20025;-94
2022/10/29 10:07:36;;;;;;;22.50;12.25;;;17.90;99.90;;;;;;5014514;28;20083;-93
2022/10/29 10:10:05;;;;;;;21.58;12.48;;;17.80;99.90;;;;;;5015420;28;20481;-93
2022/10/29 10:12:36;;;;;;;21.35;12.25;;;17.80;99.90;;;;;;5014643;28;20026;-93
2022/10/29 10:15:16;;;;;;;21.27;11.68;;;17.90;99.90;;;;;;5016329;28;20032;-93
2022/10/29 10:18:03;;;;;;;16.58;11.80;;;17.90;99.90;;;;;;5024869;28;20085;-93
2022/10/29 10:20:33;;;;;;;21.88;12.00;;;18.00;99.90;;;;;;5015807;28;20466;-94
2022/10/29 10:22:59;;;;;;;20.90;12.32;;;18.00;99.90;;;;;;5015203;28;20107;-94
2022/10/29 10:25:35;;;;;;;16.92;11.15;;;18.10;99.90;;;;;;5014998;28;20033;-93
2022/10/29 10:28:19;;;;;;;21.40;12.30;;;18.20;99.90;;;;;;5015862;28;20036;-93
2022/10/29 10:31:05;;;;;;;19.92;11.60;;;18.30;99.90;;;;;;5015345;28;20049;-93
2022/10/29 10:33:35;;;;;;;19.00;10.80;;;18.30;99.90;;;;;;5033206;28;20021;-94
2022/10/29 10:36:07;;;;;;;22.02;11.80;;;18.40;99.90;;;;;;5014196;28;20056;-93
2022/10/29 10:38:44;;;;;;;18.73;11.27;;;18.40;99.90;;;;;;5014213;28;20026;-94
2022/10/29 10:41:12;;;;;;;20.40;11.40;;;18.50;99.90;;;;;;5015183;28;20036;-93
2022/10/29 10:43:42;;;;;;;21.17;11.73;;;18.50;99.90;;;;;;5009907;28;20401;-93
2022/10/29 10:46:24;;;;;;;18.15;10.32;;;18.50;99.90;;;;;;5014929;28;20117;-93
2022/10/29 10:49:36;;;;;;;24.92;11.80;;;18.70;99.90;;;;;;5016495;28;20021;-94
2022/10/29 10:52:14;;;;;;;16.40;9.90;;;18.90;99.90;;;;;;4991293;28;20068;-93
2022/10/29 10:54:58;;;;;;;17.35;10.20;;;19.10;99.90;;;;;;5016540;28;20030;-94
2022/10/29 10:57:35;;;;;;;21.80;10.35;;;19.30;99.90;;;;;;5009843;28;20026;-94
2022/10/29 11:00:08;;;;;;;19.58;10.23;;;19.50;99.90;;;;;;5018549;28;20048;-94
2022/10/29 11:02:43;;;;;;;17.13;10.10;;;19.70;99.90;;;;;;5019285;28;20034;-94
2022/10/29 11:05:18;;;;;;;19.58;9.52;;;20.00;99.90;;;;;;5018438;28;20078;-92
2022/10/29 11:08:00;;;;;;;16.80;9.55;;;20.20;99.90;;;;;;5035977;28;20033;-93
2022/10/29 11:10:42;;;;;;;17.58;9.43;;;20.40;99.90;;;;;;5018424;28;20033;-93
2022/10/29 11:13:17;;;;;;;18.25;7.68;;;20.50;99.90;;;;;;5010247;28;20110;-93
2022/10/29 11:15:54;;;;;;;13.80;8.25;;;20.60;99.90;;;;;;4995900;28;20029;-94
2022/10/29 11:18:27;;;;;;;14.95;9.30;;;20.80;99.90;;;;;;5017793;28;20423;-93
2022/10/29 11:21:06;;;;;;;15.00;8.43;;;21.10;99.90;;;;;;5018340;28;20051;-93
2022/10/29 11:23:53;;;;;;;15.07;7.88;;;21.30;99.90;;;;;;5018646;28;20067;-93
2022/10/29 11:26:45;;;;;;;15.40;8.50;;;21.50;99.90;;;;;;5017571;28;20413;-93
2022/10/29 11:29:29;;;;;;;18.02;8.23;;;21.50;99.90;;;;;;5017474;28;20049;-93
2022/10/29 11:32:10;;;;;;;16.10;8.82;;;21.50;99.90;;;;;;5034682;28;20036;-94
2022/10/29 11:35:00;;;;;;;14.00;8.65;;;21.50;99.90;;;;;;5017066;28;20021;-94
2022/10/29 11:37:48;;;;;;;15.70;8.68;;;21.40;99.90;;;;;;5011260;28;20497;-94
2022/10/29 11:40:21;;;;;;;18.10;9.45;;;21.30;99.90;;;;;;5017601;28;20061;-94
2022/10/29 11:42:47;;;;;;;18.05;9.00;;;21.20;99.90;;;;;;5010997;28;20039;-94
2022/10/29 11:45:33;;;;;;;22.27;9.70;;;21.10;99.90;;;;;;5018075;28;20108;-93
2022/10/29 11:48:20;;;;;;;18.30;9.23;;;21.00;99.90;;;;;;5004398;28;20026;-94
2022/10/29 11:50:59;;;;;;;19.67;9.73;;;21.00;99.90;;;;;;5019468;28;20164;-94
2022/10/29 11:53:57;;;;;;;17.08;9.38;;;21.00;99.90;;;;;;5035377;28;20032;-93
2022/10/29 11:56:35;;;;;;;21.38;8.75;;;21.00;99.90;;;;;;5028252;28;20029;-93
2022/10/29 11:59:26;;;;;;;17.27;10.05;;;21.00;99.90;;;;;;5016418;28;20026;-94
2022/10/29 12:02:19;;;;;;;21.33;9.27;;;21.20;99.90;;;;;;5033348;28;20037;-94
2022/10/29 12:04:59;;;;;;;20.45;9.98;;;21.30;99.90;;;;;;5031062;28;20018;-93
2022/10/29 12:07:49;;;;;;;17.23;9.52;;;21.40;99.90;;;;;;5016045;28;20501;-93
2022/10/29 12:10:46;;;;;;;18.33;9.55;;;21.50;99.90;;;;;;5014034;28;20373;-94
2022/10/29 12:13:33;;;;;;;18.08;9.20;;;21.60;99.90;;;;;;4997721;28;20045;-94
2022/10/29 12:16:21;;;;;;;13.10;8.32;;;21.70;99.90;;;;;;5016979;28;20064;-94
2022/10/29 12:18:53;;;;;;;15.95;8.40;;;21.90;99.90;;;;;;5013846;28;20022;-93
2022/10/29 12:21:22;;;;;;;20.75;9.43;;;22.00;99.90;;;;;;5015979;28;20049;-93
2022/10/29 12:23:57;;;;;;;13.23;7.50;;;22.20;99.90;;;;;;5015254;28;20030;-94
2022/10/29 12:26:42;;;;;;;15.55;7.55;;;22.30;99.90;;;;;;5021376;28;20108;-93
2022/10/29 12:29:24;;;;;;;17.75;7.70;;;22.30;99.90;;;;;;5016927;28;20045;-94
2022/10/29 12:32:10;;;;;;;;;;;22.50;99.90;;;;;;5017599;28;20030;-94
2022/10/29 12:35:01;;;;;;;18.25;6.45;;;22.60;99.90;;;;;;5002547;28;19935;-93
2022/10/29 12:37:41;;;;;;;11.65;5.53;;;22.80;99.90;;;;;;5013671;28;20385;-93
2022/10/29 12:40:20;;;;;;;11.95;5.70;;;22.80;99.90;;;;;;5026622;28;20049;-94
2022/10/29 12:42:48;;;;;;;11.82;5.68;;;22.90;99.90;;;;;;5016255;28;20046;-93
2022/10/29 12:45:22;;;;;;;13.70;5.38;;;22.90;99.90;;;;;;4997780;28;20125;-93
2022/10/29 12:48:18;;;;;;;12.63;4.95;;;22.90;99.90;;;;;;5015968;28;20080;-94
2022/10/29 12:51:02;;;;;;;11.77;4.90;;;22.90;99.90;;;;;;5016853;28;20441;-94
2022/10/29 12:53:39;;;;;;;14.93;4.40;;;22.90;99.90;;;;;;5016744;28;20033;-94